Time;durP1;ratioP1;P1;durP2;ratioP2;P2;SDS_P1;SDS_P2;PMS_P1;PMS_P2;Temp;Humidity;BMP_temperature;BMP_pressure;BME280_temperature;BME280_humidity;BME280_pressure;Samples;Min_cycle;Max_cycle;Signal;HPM_P1;HPM_P2
2022/10/26 00:06:09;;;;;;;24.95;12.07;;;;;;;9.99;100.00;99390.05;4445598;78;20979;-85
2022/10/26 00:12:10;;;;;;;27.32;13.93;;;;;;;10.05;100.00;99386.47;4430609;78;21569;-85
2022/10/26 00:18:12;;;;;;;26.37;13.30;;;;;;;9.99;100.00;99391.42;4456654;78;21070;-86
2022/10/26 00:24:14;;;;;;;20.82;11.43;;;;;;;9.97;100.00;99395.12;4455137;78;21574;-85
2022/10/26 00:30:18;;;;;;;19.73;10.80;;;;;;;9.99;100.00;99405.09;4462197;78;20986;-85
2022/10/26 00:36:25;;;;;;;23.15;11.65;;;;;;;10.03;100.00;99403.23;4454218;77;21038;-85
2022/10/26 00:42:27;;;;;;;20.25;12.50;;;;;;;10.06;100.00;99407.19;4459415;78;21024;-85
2022/10/26 00:48:44;;;;;;;19.95;10.15;;;;;;;9.83;100.00;99405.77;4444790;78;21075;-85
2022/10/26 00:54:46;;;;;;;20.72;11.95;;;;;;;9.75;100.00;99412.80;4448714;78;20995;-85
2022/10/26 01:00:56;;;;;;;27.10;12.98;;;;;;;9.67;100.00;99421.44;4451334;78;20972;-85
2022/10/26 01:07:02;;;;;;;27.50;14.25;;;;;;;9.63;100.00;99419.22;4447669;78;21976;-86
2022/10/26 01:13:05;;;;;;;24.00;12.93;;;;;;;9.71;100.00;99420.92;4459189;78;21044;-86
2022/10/26 01:19:56;;;;;;;22.02;12.13;;;;;;;9.81;100.00;99415.47;4454670;78;22109;-85
2022/10/26 01:26:26;;;;;;;17.07;11.33;;;;;;;9.85;100.00;99417.72;4442598;78;21003;-85
2022/10/26 01:33:08;;;;;;;20.80;12.47;;;;;;;9.87;100.00;99403.89;4464530;78;20984;-85
2022/10/26 01:39:39;;;;;;;16.27;10.63;;;;;;;9.91;100.00;99398.50;4457254;77;21059;-85
2022/10/26 01:45:49;;;;;;;17.25;8.70;;;;;;;9.86;100.00;99405.05;4439306;77;21090;-85
2022/10/26 01:51:52;;;;;;;14.47;8.43;;;;;;;9.80;100.00;99402.39;4448855;78;21522;-85
2022/10/26 01:57:59;;;;;;;15.05;9.23;;;;;;;9.81;100.00;99403.16;4458416;78;22131;-86
2022/10/26 02:04:36;;;;;;;;;;;;;;;9.79;100.00;99411.73;4457966;79;21000;-85
2022/10/26 02:10:52;;;;;;;19.15;9.43;;;;;;;9.73;100.00;99409.06;4452564;78;20496;-86
2022/10/26 02:16:59;;;;;;;14.15;8.60;;;;;;;9.70;100.00;99408.42;4460005;77;21551;-85
2022/10/26 02:23:02;;;;;;;;;;;;;;;9.61;100.00;99403.74;4457099;78;20984;-86
2022/10/26 02:29:08;;;;;;;20.08;9.45;;;;;;;9.46;100.00;99399.10;4334614;79;20205;-85
2022/10/26 02:35:13;;;;;;;17.50;7.87;;;;;;;9.29;100.00;99400.31;4482079;78;21111;-85
2022/10/26 02:48:33;;;;;;;14.15;8.45;;;;;;;8.70;100.00;99400.25;4455222;77;21018;-85
2022/10/26 02:55:12;;;;;;;15.85;7.87;;;;;;;8.42;100.00;99399.53;4461756;77;21062;-85
2022/10/26 03:01:15;;;;;;;16.95;8.85;;;;;;;8.32;100.00;99403.57;4461909;77;20975;-85
2022/10/26 03:07:25;;;;;;;20.75;8.68;;;;;;;8.10;100.00;99408.79;4455703;77;21558;-85
2022/10/26 03:13:26;;;;;;;16.62;9.65;;;;;;;8.18;100.00;99416.80;4455024;78;21010;-85
2022/10/26 03:19:27;;;;;;;14.38;9.53;;;;;;;7.99;100.00;99427.00;4438197;78;21058;-85
2022/10/26 03:32:25;;;;;;;21.60;9.70;;;;;;;7.84;100.00;99433.77;4471110;78;21065;-85
2022/10/26 03:38:27;;;;;;;17.35;9.40;;;;;;;7.66;100.00;99432.44;4457392;78;21624;-85
2022/10/26 03:44:28;;;;;;;14.47;8.93;;;;;;;7.47;100.00;99439.87;4459128;78;21890;-85
2022/10/26 04:03:50;;;;;;;16.23;9.20;;;;;;;7.22;100.00;99438.31;4442489;79;21102;-85
2022/10/26 04:09:51;;;;;;;16.05;8.35;;;;;;;7.24;100.00;99436.05;4464725;77;21556;-85
2022/10/26 04:15:52;;;;;;;19.62;10.45;;;;;;;7.37;100.00;99430.83;4440261;78;21011;-86
2022/10/26 04:21:57;;;;;;;18.80;8.18;;;;;;;7.22;100.00;99439.67;4460252;79;20999;-85
2022/10/26 04:27:59;;;;;;;15.83;8.78;;;;;;;7.12;100.00;99438.79;4476478;78;21986;-85
2022/10/26 04:34:01;;;;;;;27.13;10.60;;;;;;;6.94;100.00;99434.70;4481672;78;21100;-85
2022/10/26 04:40:05;;;;;;;15.58;9.63;;;;;;;6.86;100.00;99434.83;4446465;78;21041;-86
2022/10/26 04:46:07;;;;;;;20.05;10.85;;;;;;;6.62;100.00;99436.15;4457298;78;22244;-85
2022/10/26 04:52:08;;;;;;;16.93;9.40;;;;;;;6.46;100.00;99429.21;4429951;78;21070;-85
2022/10/26 04:58:10;;;;;;;12.90;8.28;;;;;;;6.54;100.00;99431.04;4433419;78;21022;-85
2022/10/26 05:04:11;;;;;;;12.43;7.95;;;;;;;6.52;100.00;99433.85;4446404;78;21055;-85
2022/10/26 05:10:14;;;;;;;15.78;10.00;;;;;;;6.70;100.00;99439.34;4459582;78;21107;-85
2022/10/26 05:16:15;;;;;;;18.77;10.25;;;;;;;6.62;100.00;99447.03;4456151;78;21661;-85
2022/10/26 05:22:16;;;;;;;23.22;11.65;;;;;;;6.52;100.00;99455.05;4464016;78;21445;-85
2022/10/26 05:28:20;;;;;;;18.20;10.08;;;;;;;6.29;100.00;99456.59;4461701;78;21003;-85
2022/10/26 05:34:21;;;;;;;18.23;11.05;;;;;;;6.15;100.00;99470.45;4463053;78;21000;-85
2022/10/26 05:40:24;;;;;;;17.65;9.10;;;;;;;6.05;100.00;99472.80;4321324;80;21532;-85
2022/10/26 05:46:26;;;;;;;25.12;13.15;;;;;;;6.39;100.00;99469.19;4292665;82;21569;-85
2022/10/26 05:52:27;;;;;;;22.95;13.55;;;;;;;6.32;100.00;99476.31;4303969;81;21034;-85
2022/10/26 05:58:29;;;;;;;25.65;13.05;;;;;;;6.23;100.00;99483.77;4302160;81;21028;-85
2022/10/26 06:04:37;;;;;;;19.65;13.05;;;;;;;6.30;100.00;99484.00;4288877;80;21035;-85
2022/10/26 06:10:39;;;;;;;20.70;11.35;;;;;;;6.36;100.00;99488.89;4451482;78;21420;-85
2022/10/26 06:17:19;;;;;;;28.52;15.48;;;;;;;6.33;100.00;99499.64;4474706;78;21813;-85
2022/10/26 06:23:59;;;;;;;22.48;14.18;;;;;;;6.39;100.00;99496.38;4465171;78;21621;-85
2022/10/26 06:30:12;;;;;;;24.25;13.43;;;;;;;6.47;100.00;99496.06;4463495;78;21009;-85
2022/10/26 06:36:23;;;;;;;23.30;16.55;;;;;;;6.67;100.00;99503.95;4474098;78;21586;-84
2022/10/26 06:42:24;;;;;;;39.10;17.98;;;;;;;6.86;100.00;99509.66;4459572;78;21453;-85
2022/10/26 06:48:28;;;;;;;46.28;23.20;;;;;;;7.10;100.00;99518.64;4476935;78;21004;-85
2022/10/26 06:54:53;;;;;;;47.65;27.02;;;;;;;7.32;100.00;99515.48;4445483;78;21049;-85
2022/10/26 07:00:55;;;;;;;53.38;27.82;;;;;;;7.59;100.00;99520.80;4464703;77;21602;-85
2022/10/26 07:06:58;;;;;;;56.42;28.95;;;;;;;7.93;100.00;99524.36;4462796;78;21042;-86
2022/10/26 07:13:01;;;;;;;45.78;27.30;;;;;;;8.54;100.00;99533.95;4462978;77;21003;-85
2022/10/26 07:19:04;;;;;;;37.98;23.07;;;;;;;9.35;100.00;99523.20;4457539;77;21026;-86
2022/10/26 07:25:07;;;;;;;28.65;18.45;;;;;;;10.26;100.00;99536.00;4466018;78;21004;-85
2022/10/26 07:31:09;;;;;;;23.87;15.70;;;;;;;10.62;100.00;99538.30;4464166;77;21097;-86
2022/10/26 07:37:19;;;;;;;21.02;11.63;;;;;;;11.17;100.00;99533.65;4453974;78;21025;-86
2022/10/26 07:43:47;;;;;;;13.72;9.28;;;;;;;11.65;100.00;99544.46;4448300;78;21897;-86
2022/10/26 07:49:51;;;;;;;13.05;7.37;;;;;;;12.03;100.00;99547.77;4463374;77;21026;-86
2022/10/26 07:55:56;;;;;;;12.70;7.08;;;;;;;12.48;100.00;99543.45;4476049;78;21433;-85
2022/10/26 08:02:00;;;;;;;12.25;7.87;;;;;;;13.01;100.00;99541.91;4463721;78;21137;-85
2022/10/26 08:08:19;;;;;;;11.40;6.80;;;;;;;13.39;100.00;99537.37;4290988;80;20996;-86
2022/10/26 08:14:31;;;;;;;15.50;7.08;;;;;;;14.13;100.00;99543.58;4300719;80;20999;-85
2022/10/26 08:20:43;;;;;;;7.65;4.87;;;;;;;15.03;100.00;99538.04;4293795;81;21042;-86
2022/10/26 08:26:45;;;;;;;9.68;5.03;;;;;;;15.91;100.00;99529.18;4457907;78;21076;-86
2022/10/26 08:32:46;;;;;;;8.23;4.62;;;;;;;16.69;100.00;99527.79;4302634;80;21074;-86
2022/10/26 08:39:09;;;;;;;8.93;4.03;;;;;;;17.45;100.00;99527.70;4465108;78;21035;-85
2022/10/26 08:45:34;;;;;;;7.15;3.70;;;;;;;18.45;100.00;99531.27;4431978;77;21012;-83
2022/10/26 08:51:41;;;;;;;6.83;3.30;;;;;;;18.93;100.00;99531.05;4313650;80;21090;-85
2022/10/26 09:04:41;;;;;;;5.67;2.35;;;;;;;20.23;96.27;99526.73;4488158;77;21069;-85
2022/10/26 09:10:55;;;;;;;6.47;2.93;;;;;;;20.22;92.20;99529.34;4466030;78;21026;-85
2022/10/26 09:17:18;;;;;;;11.35;3.67;;;;;;;20.32;91.93;99523.57;4462460;79;21103;-85
2022/10/26 09:51:55;;;;;;;11.45;2.10;;;;;;;21.70;83.81;99539.56;4343024;79;21039;-85
2022/10/26 09:58:20;;;;;;;5.22;3.10;;;;;;;22.39;83.17;99538.75;4316555;78;21894;-84
2022/10/26 10:11:15;;;;;;;14.30;2.92;;;;;;;22.86;78.64;99541.98;4467380;78;21434;-85
2022/10/26 10:17:21;;;;;;;6.90;2.62;;;;;;;23.07;78.75;99538.53;4479696;78;21917;-86
2022/10/26 10:44:31;;;;;;;4.55;1.90;;;;;;;21.88;70.72;99520.23;4304030;80;21113;-86
2022/10/26 10:50:35;;;;;;;;;;;;;;;21.88;70.72;99520.23;4348900;79;21089;-86
2022/10/26 11:04:19;;;;;;;5.20;1.98;;;;;;;21.11;70.22;99518.73;4470051;78;21407;-86
2022/10/26 11:10:45;;;;;;;3.27;1.55;;;;;;;21.06;69.19;99513.08;4279829;81;21081;-86
2022/10/26 11:23:40;;;;;;;3.45;1.57;;;;;;;20.54;69.09;99519.16;4472880;78;21060;-86
2022/10/26 11:36:29;;;;;;;7.47;1.80;;;;;;;20.18;68.53;99517.70;4170421;83;21023;-85
2022/10/26 11:43:13;;;;;;;4.12;1.90;;;;;;;19.84;67.41;99516.33;4171455;83;21045;-84
2022/10/26 11:49:38;;;;;;;5.22;1.70;;;;;;;19.52;67.42;99512.70;4185288;83;21047;-83
2022/10/26 11:55:55;;;;;;;6.30;1.92;;;;;;;19.32;67.56;99510.46;4189647;79;21046;-85
2022/10/26 12:02:18;;;;;;;4.05;1.37;;;;;;;19.04;68.10;99514.23;4471877;77;21460;-84
2022/10/26 12:15:51;;;;;;;5.42;1.67;;;;;;;18.64;67.73;99515.38;4375503;80;21054;-84
2022/10/26 12:22:00;;;;;;;7.35;4.83;;;;;;;18.65;68.14;99516.17;4146555;83;21097;-84
2022/10/26 12:28:19;;;;;;;2.67;1.65;;;;;;;18.62;67.21;99513.62;4156240;84;21470;-85
2022/10/26 12:34:39;;;;;;;6.03;1.40;;;;;;;18.63;67.03;99515.80;4134152;84;21078;-85
2022/10/26 12:54:44;;;;;;;3.62;1.55;;;;;;;18.37;67.50;99510.34;3994014;83;21209;-84
2022/10/26 13:01:02;;;;;;;4.60;0.90;;;;;;;18.31;66.55;99507.05;4171727;83;22267;-84
2022/10/26 13:07:33;;;;;;;3.42;1.15;;;;;;;18.29;67.18;99504.69;4172751;83;21657;-85
2022/10/26 13:13:55;;;;;;;9.43;1.52;;;;;;;18.22;67.18;99509.53;4263025;79;21550;-85
2022/10/26 13:20:05;;;;;;;4.15;1.20;;;;;;;18.11;66.69;99504.13;4450001;77;21611;-85
2022/10/26 13:26:14;;;;;;;2.62;1.40;;;;;;;17.96;66.27;99511.61;4460063;77;21737;-84
2022/10/26 13:32:27;;;;;;;2.60;1.42;;;;;;;17.83;65.65;99505.80;4456767;77;21000;-84
2022/10/26 13:38:33;;;;;;;4.87;1.15;;;;;;;17.74;66.15;99513.02;4464564;78;21031;-85
2022/10/26 13:44:50;;;;;;;6.80;1.75;;;;;;;17.67;65.71;99515.84;4473181;78;20998;-84
2022/10/26 13:50:59;;;;;;;3.70;1.47;;;;;;;17.57;65.77;99513.97;4444468;78;21650;-84
2022/10/26 13:57:13;;;;;;;2.85;1.45;;;;;;;17.45;66.79;99518.02;4471788;78;21064;-85
2022/10/26 14:03:21;;;;;;;4.30;1.27;;;;;;;17.34;66.50;99516.52;4471462;78;22014;-85
2022/10/26 14:09:56;;;;;;;7.67;1.75;;;;;;;17.28;66.62;99518.91;4466271;78;21000;-85
2022/10/26 14:16:12;;;;;;;7.55;2.10;;;;;;;17.18;67.25;99519.17;4452692;78;21095;-84
2022/10/26 14:22:26;;;;;;;4.83;1.55;;;;;;;17.04;67.42;99520.66;4468925;77;21063;-85
2022/10/26 14:28:43;;;;;;;3.55;1.32;;;;;;;16.95;67.57;99518.14;4463645;78;21018;-85
2022/10/26 14:34:57;;;;;;;4.33;1.55;;;;;;;16.80;68.41;99525.73;4364128;79;21058;-84
2022/10/26 14:40:58;;;;;;;17.17;5.20;;;;;;;16.70;68.36;99527.97;4469947;78;20997;-84
2022/10/26 14:47:16;;;;;;;34.60;9.88;;;;;;;16.56;68.46;99525.27;4458214;78;21066;-85
2022/10/26 14:53:20;;;;;;;26.17;6.12;;;;;;;16.48;68.48;99528.45;4461837;78;21014;-85
2022/10/26 14:59:27;;;;;;;22.50;6.33;;;;;;;16.34;68.72;99532.62;4457116;78;21085;-85
2022/10/26 15:05:32;;;;;;;10.32;3.15;;;;;;;16.21;69.18;99538.41;4463675;77;20972;-85
2022/10/26 15:11:36;;;;;;;9.08;2.92;;;;;;;16.02;69.33;99538.84;4472561;77;21042;-85
2022/10/26 15:17:44;;;;;;;10.20;4.33;;;;;;;15.92;69.65;99543.78;4470454;77;21108;-88
2022/10/26 15:23:46;;;;;;;10.53;4.70;;;;;;;15.73;70.13;99551.09;4461520;78;21082;-86
2022/10/26 15:29:54;;;;;;;12.82;4.42;;;;;;;15.44;70.70;99565.52;4471361;77;21077;-85
2022/10/26 15:36:19;;;;;;;18.40;8.48;;;;;;;15.19;71.49;99565.44;4449584;78;21007;-84
2022/10/26 15:42:20;;;;;;;17.77;5.85;;;;;;;14.91;72.21;99573.64;4467764;77;21082;-84
2022/10/26 15:48:28;;;;;;;57.00;12.68;;;;;;;14.47;72.69;99575.06;4473043;77;21031;-84
2022/10/26 15:54:36;;;;;;;18.73;5.03;;;;;;;14.14;73.56;99579.56;4463417;77;20984;-84
2022/10/26 16:00:38;;;;;;;9.33;5.05;;;;;;;13.87;74.31;99580.18;4465564;77;21562;-84
2022/10/26 16:07:00;;;;;;;9.35;3.58;;;;;;;13.63;75.11;99588.45;4463312;77;21050;-84
2022/10/26 16:12:58;;;;;;;12.73;5.62;;;;;;;13.33;75.55;99593.28;4457690;77;21530;-84
2022/10/26 16:18:59;;;;;;;12.80;6.20;;;;;;;13.08;76.25;99592.24;4478096;77;21034;-85
2022/10/26 16:25:00;;;;;;;15.58;6.75;;;;;;;12.92;76.99;99599.11;4467452;77;21001;-83
2022/10/26 16:31:07;;;;;;;21.62;8.33;;;;;;;12.68;77.42;99607.27;4465074;77;21032;-83
2022/10/26 16:37:09;;;;;;;15.40;7.70;;;;;;;12.39;78.08;99603.93;4382964;79;21105;-84
2022/10/26 16:43:12;;;;;;;12.93;7.28;;;;;;;12.13;78.89;99612.20;4344830;77;10000255;-84
2022/10/26 16:49:14;;;;;;;14.87;7.55;;;;;;;11.98;79.58;99611.79;4481600;77;21590;-84
2022/10/26 16:55:16;;;;;;;14.05;7.95;;;;;;;11.89;80.10;99605.75;4465160;77;20993;-84
2022/10/26 17:01:19;;;;;;;16.70;8.60;;;;;;;11.61;80.29;99610.18;4463245;77;21492;-85
2022/10/26 17:07:31;;;;;;;14.90;7.00;;;;;;;11.34;80.94;99622.23;4470008;77;21983;-84
2022/10/26 17:13:33;;;;;;;18.37;8.58;;;;;;;11.16;81.58;99629.92;4370754;79;21048;-84
2022/10/26 17:19:34;;;;;;;20.90;9.95;;;;;;;10.99;82.13;99637.44;4375496;79;21110;-84
2022/10/26 17:25:37;;;;;;;20.15;10.75;;;;;;;10.86;82.78;99641.50;4318377;80;21011;-84
2022/10/26 17:31:38;;;;;;;21.23;13.95;;;;;;;10.68;83.15;99642.30;4324680;80;21421;-84
2022/10/26 17:37:41;;;;;;;22.13;13.08;;;;;;;10.52;83.52;99659.34;4313373;80;21600;-84
2022/10/26 17:43:46;;;;;;;22.40;13.53;;;;;;;10.41;84.09;99664.59;4314918;81;21547;-84
2022/10/26 17:49:50;;;;;;;34.48;19.42;;;;;;;10.34;84.82;99674.00;4289609;81;21469;-83
2022/10/26 17:56:14;;;;;;;43.25;22.75;;;;;;;10.21;84.82;99670.38;4303056;80;21030;-84
2022/10/26 18:02:15;;;;;;;39.13;23.83;;;;;;;9.98;85.23;99674.30;4304179;80;21041;-84
2022/10/26 18:08:17;;;;;;;31.50;21.25;;;;;;;9.88;85.98;99686.34;4313255;80;20982;-84
2022/10/26 18:14:20;;;;;;;34.55;19.62;;;;;;;9.78;86.50;99684.94;4293276;80;21148;-83
2022/10/26 18:20:22;;;;;;;34.92;20.00;;;;;;;9.75;86.84;99690.31;4373769;80;21061;-83
2022/10/26 18:26:28;;;;;;;31.40;19.30;;;;;;;9.70;87.25;99689.20;4377921;80;22000;-84
2022/10/26 18:32:30;;;;;;;23.23;15.33;;;;;;;9.65;87.81;99696.31;4309228;80;21056;-83
2022/10/26 18:38:32;;;;;;;41.15;21.02;;;;;;;9.61;88.91;99698.15;4299319;80;21512;-84
2022/10/26 18:44:34;;;;;;;36.25;19.73;;;;;;;9.61;88.49;99703.05;4311648;80;21116;-84
2022/10/26 18:50:37;;;;;;;33.08;19.80;;;;;;;9.45;88.63;99717.26;4299200;80;21035;-84
2022/10/26 18:56:38;;;;;;;28.90;19.37;;;;;;;9.33;88.94;99720.06;4297789;80;21043;-85
2022/10/26 19:02:39;;;;;;;34.50;19.25;;;;;;;9.28;89.55;99730.67;4297266;81;21025;-85
2022/10/26 19:08:42;;;;;;;34.20;18.30;;;;;;;9.25;89.78;99731.94;4274154;80;21653;-83
2022/10/26 19:14:43;;;;;;;34.23;22.02;;;;;;;9.18;90.12;99741.28;4174488;80;10000427;-83
2022/10/26 19:20:44;;;;;;;47.60;19.15;;;;;;;9.10;90.52;99744.95;4302493;80;20994;-84
2022/10/26 19:26:49;;;;;;;41.33;25.37;;;;;;;9.08;90.93;99758.95;4305170;81;21012;-83
2022/10/26 19:32:51;;;;;;;45.10;24.55;;;;;;;9.03;91.03;99761.95;4295327;80;22055;-83
2022/10/26 19:38:55;;;;;;;35.35;21.25;;;;;;;8.94;91.21;99761.86;4313384;80;21515;-83
2022/10/26 19:44:56;;;;;;;39.90;24.50;;;;;;;8.86;92.02;99773.71;4301882;81;21711;-84
2022/10/26 19:50:58;;;;;;;54.23;26.60;;;;;;;8.87;92.06;99775.29;4430526;77;21283;-83
2022/10/26 19:56:59;;;;;;;44.98;25.97;;;;;;;8.75;91.18;99786.24;4461709;78;21006;-83
2022/10/26 20:03:01;;;;;;;46.77;24.20;;;;;;;8.65;92.50;99788.87;4473009;77;21099;-83
2022/10/26 20:09:02;;;;;;;39.35;24.23;;;;;;;8.63;92.57;99793.86;4462476;78;21030;-83
2022/10/26 20:15:06;;;;;;;37.20;20.68;;;;;;;8.55;92.60;99797.50;4467937;78;20959;-83
2022/10/26 20:21:12;;;;;;;34.50;19.02;;;;;;;8.48;93.40;99800.02;4457113;78;21717;-83
2022/10/26 20:27:14;;;;;;;33.65;19.52;;;;;;;8.41;93.67;99809.92;4465069;78;21227;-83
2022/10/26 20:33:16;;;;;;;36.53;20.68;;;;;;;8.38;94.07;99816.06;4452317;78;21629;-82
2022/10/26 20:39:18;;;;;;;38.08;20.60;;;;;;;8.46;94.08;99811.84;4458032;78;21030;-83
2022/10/26 20:45:27;;;;;;;45.88;26.00;;;;;;;8.42;94.04;99824.59;4457731;77;21027;-83
2022/10/26 20:51:51;;;;;;;44.55;23.98;;;;;;;8.23;93.08;99833.08;4454928;78;20987;-83
2022/10/26 20:58:08;;;;;;;30.75;18.55;;;;;;;7.94;93.24;99823.91;4473789;77;21035;-83
2022/10/26 21:04:10;;;;;;;40.75;20.05;;;;;;;7.84;94.42;99837.17;4476892;77;21053;-83
2022/10/26 21:10:11;;;;;;;40.70;20.52;;;;;;;7.85;94.58;99843.66;4465186;78;21717;-83
2022/10/26 21:16:13;;;;;;;47.30;26.23;;;;;;;7.76;94.13;99844.87;4462880;78;21029;-83
2022/10/26 21:22:15;;;;;;;28.30;17.92;;;;;;;7.61;94.04;99846.87;4467441;77;21063;-83
2022/10/26 21:28:16;;;;;;;42.70;22.80;;;;;;;7.50;94.84;99847.05;4468240;77;21036;-83
2022/10/26 21:34:18;;;;;;;44.48;22.27;;;;;;;7.45;94.65;99848.60;4466944;77;21008;-83
2022/10/26 21:40:19;;;;;;;39.27;21.30;;;;;;;7.40;94.61;99844.16;4461818;77;20976;-82
2022/10/26 21:46:20;;;;;;;37.63;23.47;;;;;;;7.32;94.69;99851.02;4457500;78;20984;-83
2022/10/26 21:52:22;;;;;;;45.30;24.02;;;;;;;7.13;94.56;99856.13;4464035;77;21038;-83
2022/10/26 21:58:23;;;;;;;42.35;23.25;;;;;;;7.04;95.04;99860.84;4472426;78;21595;-83
2022/10/26 22:04:25;;;;;;;39.70;23.65;;;;;;;7.00;95.59;99862.64;4457492;77;20964;-83
2022/10/26 22:10:27;;;;;;;37.63;20.12;;;;;;;6.97;95.80;99863.31;4460845;78;20977;-83
2022/10/26 22:16:31;;;;;;;46.80;23.00;;;;;;;6.93;95.88;99863.16;4458520;78;20968;-83
2022/10/26 22:22:32;;;;;;;48.87;27.32;;;;;;;6.90;96.05;99869.27;4463044;77;21081;-83
2022/10/26 22:28:36;;;;;;;47.45;24.27;;;;;;;6.86;96.23;99871.62;4465746;78;21701;-83
2022/10/26 22:34:38;;;;;;;43.95;23.90;;;;;;;6.84;96.37;99871.95;4463909;78;20976;-83
2022/10/26 22:40:39;;;;;;;45.00;25.90;;;;;;;6.88;96.88;99878.87;4469849;78;21016;-83
2022/10/26 22:46:40;;;;;;;45.15;24.32;;;;;;;6.73;96.22;99870.73;4458370;78;21058;-84
2022/10/26 22:52:41;;;;;;;41.10;21.27;;;;;;;6.65;96.34;99869.40;4470020;77;21062;-82
2022/10/26 22:58:43;;;;;;;41.15;22.58;;;;;;;6.52;96.68;99867.14;4465470;77;21039;-82
2022/10/26 23:04:44;;;;;;;41.75;22.85;;;;;;;6.51;96.97;99876.98;4467768;77;21024;-83
2022/10/26 23:10:45;;;;;;;45.15;23.47;;;;;;;6.51;97.22;99881.06;4467961;77;21059;-84
2022/10/26 23:16:47;;;;;;;44.00;21.70;;;;;;;6.39;97.11;99884.45;4447986;78;21003;-83
2022/10/26 23:22:48;;;;;;;39.58;21.48;;;;;;;6.36;97.29;99890.55;4460715;78;21043;-83
2022/10/26 23:28:51;;;;;;;48.70;24.23;;;;;;;6.20;96.81;99888.92;4477732;78;21133;-82
2022/10/26 23:34:52;;;;;;;46.45;24.63;;;;;;;6.10;96.72;99893.37;4470241;78;20997;-83
2022/10/26 23:40:59;;;;;;;41.63;18.37;;;;;;;5.95;96.74;99884.93;4455007;78;21073;-83
2022/10/26 23:47:00;;;;;;;40.38;21.90;;;;;;;5.93;98.00;99902.11;4466316;77;21467;-83
2022/10/26 23:53:01;;;;;;;45.35;24.00;;;;;;;5.86;97.18;99901.78;4465070;77;20991;-83
2022/10/26 23:59:06;;;;;;;41.08;23.18;;;;;;;5.79;97.37;99904.98;4452398;77;20972;-82
